sensor_id;sensor_type;location;lat;lon;timestamp;temperature;humidity
18317;DHT22;9284;52.298;21.164;2023-02-28T04:11:53;-6.80;99.90
18317;DHT22;9284;52.298;21.164;2023-02-28T04:14:22;-6.90;99.90
18317;DHT22;9284;52.298;21.164;2023-02-28T04:16:51;-6.90;99.90
18317;DHT22;9284;52.298;21.164;2023-02-28T04:19:19;-7.00;99.90
18317;DHT22;9284;52.298;21.164;2023-02-28T04:21:50;-7.00;99.90
18317;DHT22;9284;52.298;21.164;2023-02-28T04:24:22;-7.10;99.90
18317;DHT22;9284;52.298;21.164;2023-02-28T04:26:55;-7.10;99.90
18317;DHT22;9284;52.298;21.164;2023-02-28T04:29:27;-7.10;99.90
18317;DHT22;9284;52.298;21.164;2023-02-28T04:31:56;-7.10;1.00
18317;DHT22;9284;52.298;21.164;2023-02-28T04:34:26;-7.00;1.00
18317;DHT22;9284;52.298;21.164;2023-02-28T04:36:56;-7.00;1.00
18317;DHT22;9284;52.298;21.164;2023-02-28T04:39:40;-7.00;1.00
18317;DHT22;9284;52.298;21.164;2023-02-28T04:42:11;-7.10;99.90
18317;DHT22;9284;52.298;21.164;2023-02-28T04:44:39;-7.10;99.90
18317;DHT22;9284;52.298;21.164;2023-02-28T04:47:08;-7.10;1.00
18317;DHT22;9284;52.298;21.164;2023-02-28T04:49:36;-7.20;1.00
18317;DHT22;9284;52.298;21.164;2023-02-28T04:52:05;-7.20;1.00
18317;DHT22;9284;52.298;21.164;2023-02-28T04:54:34;-7.30;1.00
18317;DHT22;9284;52.298;21.164;2023-02-28T04:57:02;-7.20;1.00
18317;DHT22;9284;52.298;21.164;2023-02-28T04:59:32;-7.20;1.00
18317;DHT22;9284;52.298;21.164;2023-02-28T05:02:01;-7.10;1.00
18317;DHT22;9284;52.298;21.164;2023-02-28T05:04:34;-7.20;1.00
18317;DHT22;9284;52.298;21.164;2023-02-28T05:07:03;-7.10;1.00
18317;DHT22;9284;52.298;21.164;2023-02-28T05:09:31;-7.10;1.00
18317;DHT22;9284;52.298;21.164;2023-02-28T05:12:01;-7.10;1.00
18317;DHT22;9284;52.298;21.164;2023-02-28T05:14:29;-7.10;1.00
18317;DHT22;9284;52.298;21.164;2023-02-28T05:16:59;-7.10;1.00
18317;DHT22;9284;52.298;21.164;2023-02-28T05:19:27;-7.10;1.00
18317;DHT22;9284;52.298;21.164;2023-02-28T05:21:55;-7.10;1.00
18317;DHT22;9284;52.298;21.164;2023-02-28T05:24:24;-7.10;1.00
18317;DHT22;9284;52.298;21.164;2023-02-28T05:26:53;-7.10;1.00
18317;DHT22;9284;52.298;21.164;2023-02-28T05:29:22;-7.10;1.00
18317;DHT22;9284;52.298;21.164;2023-02-28T05:31:50;-7.10;1.00
18317;DHT22;9284;52.298;21.164;2023-02-28T05:34:20;-7.10;1.00
18317;DHT22;9284;52.298;21.164;2023-02-28T05:36:49;-7.00;1.00
18317;DHT22;9284;52.298;21.164;2023-02-28T05:39:17;-6.90;1.00
18317;DHT22;9284;52.298;21.164;2023-02-28T05:41:45;-7.00;1.00
18317;DHT22;9284;52.298;21.164;2023-02-28T05:44:13;-6.90;1.00
18317;DHT22;9284;52.298;21.164;2023-02-28T05:46:43;-6.90;1.00
18317;DHT22;9284;52.298;21.164;2023-02-28T05:49:11;-6.90;1.00
18317;DHT22;9284;52.298;21.164;2023-02-28T05:51:41;-6.80;1.00
18317;DHT22;9284;52.298;21.164;2023-02-28T05:54:10;-6.70;1.00
18317;DHT22;9284;52.298;21.164;2023-02-28T05:56:39;-6.80;1.00
18317;DHT22;9284;52.298;21.164;2023-02-28T05:59:11;-6.70;1.00
18317;DHT22;9284;52.298;21.164;2023-02-28T06:01:41;-6.60;1.00
18317;DHT22;9284;52.298;21.164;2023-02-28T06:04:16;-6.60;1.00
18317;DHT22;9284;52.298;21.164;2023-02-28T06:06:58;-6.50;1.00
18317;DHT22;9284;52.298;21.164;2023-02-28T06:09:28;-6.40;99.90
18317;DHT22;9284;52.298;21.164;2023-02-28T06:11:58;-6.40;99.90
18317;DHT22;9284;52.298;21.164;2023-02-28T06:14:26;-6.30;99.90
18317;DHT22;9284;52.298;21.164;2023-02-28T06:16:54;-6.30;71.30
18317;DHT22;9284;52.298;21.164;2023-02-28T06:19:25;-6.30;99.90
18317;DHT22;9284;52.298;21.164;2023-02-28T06:21:54;-6.20;73.90
18317;DHT22;9284;52.298;21.164;2023-02-28T06:24:26;-6.20;99.90
18317;DHT22;9284;52.298;21.164;2023-02-28T06:26:55;-6.10;99.90
18317;DHT22;9284;52.298;21.164;2023-02-28T06:29:25;-6.00;99.90
18317;DHT22;9284;52.298;21.164;2023-02-28T06:31:54;-6.00;99.90
18317;DHT22;9284;52.298;21.164;2023-02-28T06:34:22;-5.90;99.90
18317;DHT22;9284;52.298;21.164;2023-02-28T06:36:51;-5.70;99.90
18317;DHT22;9284;52.298;21.164;2023-02-28T06:39:20;-5.70;1.00
18317;DHT22;9284;52.298;21.164;2023-02-28T06:41:50;-5.60;1.00
18317;DHT22;9284;52.298;21.164;2023-02-28T06:44:22;-5.50;1.00
18317;DHT22;9284;52.298;21.164;2023-02-28T06:46:51;-5.50;1.00
18317;DHT22;9284;52.298;21.164;2023-02-28T06:49:21;-5.40;1.00
18317;DHT22;9284;52.298;21.164;2023-02-28T06:51:50;-5.30;1.00
18317;DHT22;9284;52.298;21.164;2023-02-28T06:54:18;-5.20;1.00
18317;DHT22;9284;52.298;21.164;2023-02-28T06:56:47;-5.10;1.00
18317;DHT22;9284;52.298;21.164;2023-02-28T06:59:17;-4.80;1.00
18317;DHT22;9284;52.298;21.164;2023-02-28T07:01:45;-4.30;99.90
18317;DHT22;9284;52.298;21.164;2023-02-28T07:04:13;-3.70;1.00
18317;DHT22;9284;52.298;21.164;2023-02-28T07:06:42;-3.10;1.00
18317;DHT22;9284;52.298;21.164;2023-02-28T07:09:10;-2.20;1.00
18317;DHT22;9284;52.298;21.164;2023-02-28T07:11:40;-1.40;99.90
18317;DHT22;9284;52.298;21.164;2023-02-28T07:14:14;-0.50;99.90
18317;DHT22;9284;52.298;21.164;2023-02-28T07:16:47;0.20;1.00
18317;DHT22;9284;52.298;21.164;2023-02-28T07:19:15;0.70;99.90
18317;DHT22;9284;52.298;21.164;2023-02-28T07:21:43;1.20;3.60
18317;DHT22;9284;52.298;21.164;2023-02-28T07:24:12;1.70;1.00
18317;DHT22;9284;52.298;21.164;2023-02-28T07:26:42;1.50;1.00
18317;DHT22;9284;52.298;21.164;2023-02-28T07:29:10;1.80;1.00
18317;DHT22;9284;52.298;21.164;2023-02-28T07:31:39;2.40;1.00
18317;DHT22;9284;52.298;21.164;2023-02-28T07:34:09;2.90;99.90
18317;DHT22;9284;52.298;21.164;2023-02-28T07:36:37;3.10;99.90
18317;DHT22;9284;52.298;21.164;2023-02-28T07:39:05;3.50;99.90
18317;DHT22;9284;52.298;21.164;2023-02-28T07:41:36;4.00;99.90
18317;DHT22;9284;52.298;21.164;2023-02-28T07:44:10;4.70;99.90
18317;DHT22;9284;52.298;21.164;2023-02-28T07:46:40;5.30;99.90
18317;DHT22;9284;52.298;21.164;2023-02-28T07:49:10;6.20;28.70
18317;DHT22;9284;52.298;21.164;2023-02-28T07:51:38;6.20;13.30
18317;DHT22;9284;52.298;21.164;2023-02-28T07:54:07;6.70;1.00
18317;DHT22;9284;52.298;21.164;2023-02-28T07:56:35;5.90;1.00
18317;DHT22;9284;52.298;21.164;2023-02-28T07:59:04;5.30;10.70
18317;DHT22;9284;52.298;21.164;2023-02-28T08:01:32;4.80;1.00
18317;DHT22;9284;52.298;21.164;2023-02-28T08:04:00;4.20;10.80
18317;DHT22;9284;52.298;21.164;2023-02-28T08:06:30;3.70;37.00
18317;DHT22;9284;52.298;21.164;2023-02-28T08:08:59;3.20;76.40
18317;DHT22;9284;52.298;21.164;2023-02-28T08:11:27;2.80;95.90
18317;DHT22;9284;52.298;21.164;2023-02-28T08:13:56;2.60;99.90
18317;DHT22;9284;52.298;21.164;2023-02-28T08:16:25;2.30;99.90
18317;DHT22;9284;52.298;21.164;2023-02-28T08:18:53;2.30;99.90
18317;DHT22;9284;52.298;21.164;2023-02-28T08:21:21;2.30;99.90
18317;DHT22;9284;52.298;21.164;2023-02-28T08:23:51;2.30;99.90
18317;DHT22;9284;52.298;21.164;2023-02-28T08:26:20;2.00;99.90
18317;DHT22;9284;52.298;21.164;2023-02-28T08:28:49;1.80;99.90
18317;DHT22;9284;52.298;21.164;2023-02-28T08:31:17;1.60;99.90
18317;DHT22;9284;52.298;21.164;2023-02-28T08:33:46;1.50;99.90
18317;DHT22;9284;52.298;21.164;2023-02-28T08:36:18;1.50;99.90
18317;DHT22;9284;52.298;21.164;2023-02-28T08:38:47;1.50;99.90
18317;DHT22;9284;52.298;21.164;2023-02-28T08:41:17;1.40;99.90
18317;DHT22;9284;52.298;21.164;2023-02-28T08:43:45;1.40;99.90
18317;DHT22;9284;52.298;21.164;2023-02-28T08:46:14;1.20;99.90
18317;DHT22;9284;52.298;21.164;2023-02-28T08:48:43;1.10;99.90
18317;DHT22;9284;52.298;21.164;2023-02-28T08:51:14;1.10;99.90
18317;DHT22;9284;52.298;21.164;2023-02-28T08:53:45;1.10;99.90
18317;DHT22;9284;52.298;21.164;2023-02-28T08:56:17;1.10;99.90
18317;DHT22;9284;52.298;21.164;2023-02-28T08:58:46;1.00;99.90
18317;DHT22;9284;52.298;21.164;2023-02-28T09:01:17;1.00;99.90
18317;DHT22;9284;52.298;21.164;2023-02-28T09:03:46;1.00;99.90
18317;DHT22;9284;52.298;21.164;2023-02-28T09:06:17;1.10;99.90
18317;DHT22;9284;52.298;21.164;2023-02-28T09:08:46;1.00;99.90
18317;DHT22;9284;52.298;21.164;2023-02-28T09:11:14;1.10;99.90
18317;DHT22;9284;52.298;21.164;2023-02-28T09:13:45;1.10;99.90
18317;DHT22;9284;52.298;21.164;2023-02-28T09:16:16;1.00;99.90
18317;DHT22;9284;52.298;21.164;2023-02-28T09:18:51;0.90;99.90
18317;DHT22;9284;52.298;21.164;2023-02-28T09:21:23;1.10;99.90
18317;DHT22;9284;52.298;21.164;2023-02-28T09:23:57;0.90;99.90
18317;DHT22;9284;52.298;21.164;2023-02-28T09:26:28;0.90;99.90
18317;DHT22;9284;52.298;21.164;2023-02-28T09:29:10;0.90;99.90
18317;DHT22;9284;52.298;21.164;2023-02-28T09:31:39;0.80;99.90
18317;DHT22;9284;52.298;21.164;2023-02-28T09:34:07;0.90;99.90
18317;DHT22;9284;52.298;21.164;2023-02-28T09:36:36;1.10;99.90
18317;DHT22;9284;52.298;21.164;2023-02-28T09:39:12;1.30;99.90
18317;DHT22;9284;52.298;21.164;2023-02-28T09:41:44;1.40;99.90
18317;DHT22;9284;52.298;21.164;2023-02-28T09:44:26;1.40;99.90
18317;DHT22;9284;52.298;21.164;2023-02-28T09:46:59;1.60;99.90
18317;DHT22;9284;52.298;21.164;2023-02-28T09:49:36;1.50;99.90
18317;DHT22;9284;52.298;21.164;2023-02-28T09:52:15;1.60;99.90
18317;DHT22;9284;52.298;21.164;2023-02-28T09:54:46;1.50;99.90
18317;DHT22;9284;52.298;21.164;2023-02-28T09:57:20;1.70;99.90
18317;DHT22;9284;52.298;21.164;2023-02-28T10:00:05;1.90;99.90
18317;DHT22;9284;52.298;21.164;2023-02-28T10:03:10;2.00;99.90
18317;DHT22;9284;52.298;21.164;2023-02-28T10:05:41;1.90;99.90
18317;DHT22;9284;52.298;21.164;2023-02-28T10:08:14;1.80;99.90
18317;DHT22;9284;52.298;21.164;2023-02-28T10:10:45;1.90;99.90
18317;DHT22;9284;52.298;21.164;2023-02-28T10:13:20;1.90;99.90
18317;DHT22;9284;52.298;21.164;2023-02-28T10:15:55;1.90;99.90
18317;DHT22;9284;52.298;21.164;2023-02-28T10:18:28;1.80;95.80
18317;DHT22;9284;52.298;21.164;2023-02-28T10:20:59;1.90;99.90
18317;DHT22;9284;52.298;21.164;2023-02-28T10:23:32;2.00;99.90
18317;DHT22;9284;52.298;21.164;2023-02-28T10:26:09;2.20;90.80
18317;DHT22;9284;52.298;21.164;2023-02-28T10:28:39;2.10;82.80
18317;DHT22;9284;52.298;21.164;2023-02-28T10:33:40;2.20;99.90
18317;DHT22;9284;52.298;21.164;2023-02-28T10:36:13;2.10;99.90
18317;DHT22;9284;52.298;21.164;2023-02-28T10:38:45;2.20;90.40
18317;DHT22;9284;52.298;21.164;2023-02-28T10:41:16;2.20;93.90
18317;DHT22;9284;52.298;21.164;2023-02-28T10:44:13;2.20;99.90
18317;DHT22;9284;52.298;21.164;2023-02-28T10:46:43;2.20;99.00
18317;DHT22;9284;52.298;21.164;2023-02-28T10:49:17;2.20;88.30
18317;DHT22;9284;52.298;21.164;2023-02-28T10:51:49;2.20;90.30
18317;DHT22;9284;52.298;21.164;2023-02-28T10:54:22;2.30;96.40
18317;DHT22;9284;52.298;21.164;2023-02-28T10:57:15;2.30;68.80
18317;DHT22;9284;52.298;21.164;2023-02-28T10:59:45;2.30;91.40
18317;DHT22;9284;52.298;21.164;2023-02-28T11:02:34;2.40;96.50
18317;DHT22;9284;52.298;21.164;2023-02-28T11:05:23;2.50;76.10
18317;DHT22;9284;52.298;21.164;2023-02-28T11:07:53;2.40;57.00
18317;DHT22;9284;52.298;21.164;2023-02-28T11:10:25;2.60;62.00
18317;DHT22;9284;52.298;21.164;2023-02-28T11:12:56;2.80;49.90
18317;DHT22;9284;52.298;21.164;2023-02-28T11:15:28;3.00;31.20
18317;DHT22;9284;52.298;21.164;2023-02-28T11:18:01;3.40;25.60
18317;DHT22;9284;52.298;21.164;2023-02-28T11:20:32;3.90;2.30
18317;DHT22;9284;52.298;21.164;2023-02-28T11:23:03;4.10;1.00
18317;DHT22;9284;52.298;21.164;2023-02-28T11:25:34;4.20;1.00
18317;DHT22;9284;52.298;21.164;2023-02-28T11:28:05;4.30;1.00
18317;DHT22;9284;52.298;21.164;2023-02-28T11:30:36;4.60;1.00
18317;DHT22;9284;52.298;21.164;2023-02-28T11:33:40;4.50;1.00
18317;DHT22;9284;52.298;21.164;2023-02-28T11:36:11;4.70;1.00
18317;DHT22;9284;52.298;21.164;2023-02-28T11:38:41;4.80;1.00
18317;DHT22;9284;52.298;21.164;2023-02-28T11:41:51;5.00;1.00
18317;DHT22;9284;52.298;21.164;2023-02-28T11:44:30;5.30;1.00
18317;DHT22;9284;52.298;21.164;2023-02-28T11:47:03;5.20;1.00
18317;DHT22;9284;52.298;21.164;2023-02-28T11:49:45;5.20;1.00
18317;DHT22;9284;52.298;21.164;2023-02-28T11:52:21;5.20;1.00
18317;DHT22;9284;52.298;21.164;2023-02-28T11:55:08;4.60;1.00
18317;DHT22;9284;52.298;21.164;2023-02-28T11:58:01;4.40;1.00
18317;DHT22;9284;52.298;21.164;2023-02-28T12:00:40;4.40;1.00
18317;DHT22;9284;52.298;21.164;2023-02-28T12:03:22;4.40;1.00
18317;DHT22;9284;52.298;21.164;2023-02-28T12:06:01;4.30;1.00
18317;DHT22;9284;52.298;21.164;2023-02-28T12:08:46;4.00;1.00
18317;DHT22;9284;52.298;21.164;2023-02-28T12:11:24;3.90;1.00
18317;DHT22;9284;52.298;21.164;2023-02-28T12:14:06;3.80;1.00
18317;DHT22;9284;52.298;21.164;2023-02-28T12:16:55;3.80;1.00
18317;DHT22;9284;52.298;21.164;2023-02-28T12:19:27;3.80;1.00
18317;DHT22;9284;52.298;21.164;2023-02-28T12:22:16;3.50;1.00
18317;DHT22;9284;52.298;21.164;2023-02-28T12:25:00;3.60;1.00
18317;DHT22;9284;52.298;21.164;2023-02-28T12:27:37;3.50;1.00
18317;DHT22;9284;52.298;21.164;2023-02-28T12:30:16;3.40;1.00
18317;DHT22;9284;52.298;21.164;2023-02-28T12:32:48;3.40;1.00
18317;DHT22;9284;52.298;21.164;2023-02-28T12:35:28;3.40;1.00
18317;DHT22;9284;52.298;21.164;2023-02-28T12:38:10;3.40;1.00
18317;DHT22;9284;52.298;21.164;2023-02-28T12:40:44;3.30;1.00
18317;DHT22;9284;52.298;21.164;2023-02-28T12:43:17;3.40;1.00
18317;DHT22;9284;52.298;21.164;2023-02-28T12:45:51;3.40;1.00
18317;DHT22;9284;52.298;21.164;2023-02-28T12:48:37;3.40;1.00
18317;DHT22;9284;52.298;21.164;2023-02-28T12:51:11;3.40;1.00
18317;DHT22;9284;52.298;21.164;2023-02-28T12:53:53;3.30;1.00
18317;DHT22;9284;52.298;21.164;2023-02-28T12:56:30;3.40;1.00
18317;DHT22;9284;52.298;21.164;2023-02-28T12:59:10;3.40;1.00
18317;DHT22;9284;52.298;21.164;2023-02-28T13:02:01;3.30;1.00
18317;DHT22;9284;52.298;21.164;2023-02-28T13:08:32;3.20;1.00
18317;DHT22;9284;52.298;21.164;2023-02-28T13:11:23;3.10;1.00
18317;DHT22;9284;52.298;21.164;2023-02-28T13:13:58;3.20;1.00
18317;DHT22;9284;52.298;21.164;2023-02-28T13:16:27;3.10;1.00
18317;DHT22;9284;52.298;21.164;2023-02-28T13:19:09;3.10;1.00
18317;DHT22;9284;52.298;21.164;2023-02-28T13:21:43;3.20;1.00
18317;DHT22;9284;52.298;21.164;2023-02-28T13:24:44;3.20;1.00
18317;DHT22;9284;52.298;21.164;2023-02-28T13:27:23;3.20;1.00
18317;DHT22;9284;52.298;21.164;2023-02-28T13:29:53;3.20;1.00
18317;DHT22;9284;52.298;21.164;2023-02-28T13:32:34;3.10;1.00
18317;DHT22;9284;52.298;21.164;2023-02-28T13:44:24;3.00;1.00
18317;DHT22;9284;52.298;21.164;2023-02-28T13:47:22;3.00;1.00
18317;DHT22;9284;52.298;21.164;2023-02-28T13:49:52;3.00;1.00
18317;DHT22;9284;52.298;21.164;2023-02-28T13:52:23;3.00;1.00
18317;DHT22;9284;52.298;21.164;2023-02-28T13:55:25;2.90;1.00
18317;DHT22;9284;52.298;21.164;2023-02-28T13:58:10;3.00;1.00
18317;DHT22;9284;52.298;21.164;2023-02-28T14:01:08;3.00;1.00
18317;DHT22;9284;52.298;21.164;2023-02-28T14:04:14;2.90;1.00
18317;DHT22;9284;52.298;21.164;2023-02-28T14:06:48;2.90;1.00
18317;DHT22;9284;52.298;21.164;2023-02-28T14:09:23;2.90;1.00
18317;DHT22;9284;52.298;21.164;2023-02-28T14:11:53;2.90;1.00
18317;DHT22;9284;52.298;21.164;2023-02-28T14:14:55;2.90;1.00
18317;DHT22;9284;52.298;21.164;2023-02-28T14:17:28;2.90;1.00
18317;DHT22;9284;52.298;21.164;2023-02-28T14:19:58;2.90;1.00
18317;DHT22;9284;52.298;21.164;2023-02-28T14:22:43;2.90;1.00
18317;DHT22;9284;52.298;21.164;2023-02-28T14:25:21;2.90;1.00
18317;DHT22;9284;52.298;21.164;2023-02-28T14:27:58;2.80;1.00
18317;DHT22;9284;52.298;21.164;2023-02-28T14:30:50;2.80;1.00
18317;DHT22;9284;52.298;21.164;2023-02-28T14:33:27;2.80;1.00
18317;DHT22;9284;52.298;21.164;2023-02-28T14:36:10;2.70;1.00
18317;DHT22;9284;52.298;21.164;2023-02-28T14:38:43;2.70;1.00
18317;DHT22;9284;52.298;21.164;2023-02-28T14:41:17;2.80;1.00
18317;DHT22;9284;52.298;21.164;2023-02-28T14:43:50;2.70;1.00
18317;DHT22;9284;52.298;21.164;2023-02-28T14:46:23;2.70;1.00
18317;DHT22;9284;52.298;21.164;2023-02-28T14:48:58;2.60;1.00
18317;DHT22;9284;52.298;21.164;2023-02-28T14:51:27;2.60;1.00
18317;DHT22;9284;52.298;21.164;2023-02-28T14:54:00;2.60;1.00
18317;DHT22;9284;52.298;21.164;2023-02-28T14:56:34;2.60;1.00
18317;DHT22;9284;52.298;21.164;2023-02-28T14:59:17;2.50;1.00
18317;DHT22;9284;52.298;21.164;2023-02-28T15:02:07;2.50;1.00
18317;DHT22;9284;52.298;21.164;2023-02-28T15:04:37;2.50;1.00
18317;DHT22;9284;52.298;21.164;2023-02-28T15:07:08;2.40;1.00
18317;DHT22;9284;52.298;21.164;2023-02-28T15:09:37;2.40;1.00
18317;DHT22;9284;52.298;21.164;2023-02-28T15:12:05;2.40;1.00
18317;DHT22;9284;52.298;21.164;2023-02-28T15:14:35;2.30;1.00
18317;DHT22;9284;52.298;21.164;2023-02-28T15:17:17;2.30;1.00
18317;DHT22;9284;52.298;21.164;2023-02-28T15:19:52;2.30;1.00
18317;DHT22;9284;52.298;21.164;2023-02-28T15:22:27;2.20;1.00
18317;DHT22;9284;52.298;21.164;2023-02-28T15:24:59;2.20;1.00
18317;DHT22;9284;52.298;21.164;2023-02-28T15:27:30;2.00;1.00
18317;DHT22;9284;52.298;21.164;2023-02-28T15:30:04;2.00;1.00
18317;DHT22;9284;52.298;21.164;2023-02-28T15:32:35;1.80;1.00
18317;DHT22;9284;52.298;21.164;2023-02-28T15:35:29;1.80;1.00
18317;DHT22;9284;52.298;21.164;2023-02-28T15:38:02;1.80;1.00
18317;DHT22;9284;52.298;21.164;2023-02-28T15:40:37;1.60;6.70
18317;DHT22;9284;52.298;21.164;2023-02-28T15:43:14;1.60;12.10
18317;DHT22;9284;52.298;21.164;2023-02-28T15:45:46;1.50;21.20
18317;DHT22;9284;52.298;21.164;2023-02-28T15:48:20;1.50;21.80
18317;DHT22;9284;52.298;21.164;2023-02-28T15:50:54;1.30;31.00
18317;DHT22;9284;52.298;21.164;2023-02-28T15:53:28;1.20;55.60
18317;DHT22;9284;52.298;21.164;2023-02-28T15:56:00;1.10;99.90
18317;DHT22;9284;52.298;21.164;2023-02-28T15:58:30;0.90;99.90
18317;DHT22;9284;52.298;21.164;2023-02-28T16:01:16;0.80;99.90
18317;DHT22;9284;52.298;21.164;2023-02-28T16:03:48;0.70;99.90
18317;DHT22;9284;52.298;21.164;2023-02-28T16:06:40;0.60;99.90
18317;DHT22;9284;52.298;21.164;2023-02-28T16:09:11;0.50;99.90
18317;DHT22;9284;52.298;21.164;2023-02-28T16:11:43;0.40;99.90
18317;DHT22;9284;52.298;21.164;2023-02-28T16:14:15;0.20;99.90
18317;DHT22;9284;52.298;21.164;2023-02-28T16:16:45;0.10;99.90
18317;DHT22;9284;52.298;21.164;2023-02-28T16:19:15;0.00;99.90
18317;DHT22;9284;52.298;21.164;2023-02-28T16:21:45;-0.20;1.00
18317;DHT22;9284;52.298;21.164;2023-02-28T16:24:14;-0.30;1.00
18317;DHT22;9284;52.298;21.164;2023-02-28T16:26:46;-0.50;1.00
18317;DHT22;9284;52.298;21.164;2023-02-28T16:29:18;-0.50;1.00
18317;DHT22;9284;52.298;21.164;2023-02-28T16:31:48;-0.60;1.00
18317;DHT22;9284;52.298;21.164;2023-02-28T16:34:16;-0.90;1.00
18317;DHT22;9284;52.298;21.164;2023-02-28T16:36:47;-0.90;1.00
18317;DHT22;9284;52.298;21.164;2023-02-28T16:39:17;-1.10;1.00
18317;DHT22;9284;52.298;21.164;2023-02-28T16:41:48;-1.20;1.00
18317;DHT22;9284;52.298;21.164;2023-02-28T16:44:23;-1.40;1.00
18317;DHT22;9284;52.298;21.164;2023-02-28T16:46:54;-1.50;1.00
18317;DHT22;9284;52.298;21.164;2023-02-28T16:49:23;-1.50;94.20
18317;DHT22;9284;52.298;21.164;2023-02-28T16:51:52;-1.50;99.90
18317;DHT22;9284;52.298;21.164;2023-02-28T16:54:21;-1.60;99.90
18317;DHT22;9284;52.298;21.164;2023-02-28T16:56:49;-1.70;99.90
18317;DHT22;9284;52.298;21.164;2023-02-28T16:59:19;-1.80;99.90
18317;DHT22;9284;52.298;21.164;2023-02-28T17:01:49;-1.80;99.90
18317;DHT22;9284;52.298;21.164;2023-02-28T17:04:18;-1.90;99.90
18317;DHT22;9284;52.298;21.164;2023-02-28T17:06:47;-2.00;99.90
18317;DHT22;9284;52.298;21.164;2023-02-28T17:09:19;-2.00;99.90
18317;DHT22;9284;52.298;21.164;2023-02-28T17:11:50;-2.10;99.90
18317;DHT22;9284;52.298;21.164;2023-02-28T17:14:18;-2.10;99.90
18317;DHT22;9284;52.298;21.164;2023-02-28T17:16:48;-2.10;1.00
18317;DHT22;9284;52.298;21.164;2023-02-28T17:19:16;-2.10;1.00
18317;DHT22;9284;52.298;21.164;2023-02-28T17:21:45;-2.20;1.00
18317;DHT22;9284;52.298;21.164;2023-02-28T17:24:13;-2.30;1.00
18317;DHT22;9284;52.298;21.164;2023-02-28T17:26:52;-2.40;1.00
18317;DHT22;9284;52.298;21.164;2023-02-28T17:29:23;-2.30;1.00
18317;DHT22;9284;52.298;21.164;2023-02-28T17:31:51;-2.30;99.90
18317;DHT22;9284;52.298;21.164;2023-02-28T17:34:20;-2.40;84.20
18317;DHT22;9284;52.298;21.164;2023-02-28T17:36:51;-2.40;99.90
18317;DHT22;9284;52.298;21.164;2023-02-28T17:39:20;-2.40;1.00
18317;DHT22;9284;52.298;21.164;2023-02-28T17:41:53;-2.40;1.00
18317;DHT22;9284;52.298;21.164;2023-02-28T17:44:23;-2.50;1.00
18317;DHT22;9284;52.298;21.164;2023-02-28T17:46:53;-2.50;1.00
18317;DHT22;9284;52.298;21.164;2023-02-28T17:49:22;-2.60;1.00
18317;DHT22;9284;52.298;21.164;2023-02-28T17:51:51;-2.60;1.00
18317;DHT22;9284;52.298;21.164;2023-02-28T17:54:19;-2.60;99.90
18317;DHT22;9284;52.298;21.164;2023-02-28T17:56:48;-2.50;99.90
18317;DHT22;9284;52.298;21.164;2023-02-28T17:59:17;-2.50;99.90
18317;DHT22;9284;52.298;21.164;2023-02-28T18:01:46;-2.60;99.90
18317;DHT22;9284;52.298;21.164;2023-02-28T18:04:14;-2.60;99.90
18317;DHT22;9284;52.298;21.164;2023-02-28T18:06:43;-2.60;99.90
18317;DHT22;9284;52.298;21.164;2023-02-28T18:09:17;-2.70;99.90
18317;DHT22;9284;52.298;21.164;2023-02-28T18:11:48;-2.70;99.90
18317;DHT22;9284;52.298;21.164;2023-02-28T18:14:20;-2.70;99.90
18317;DHT22;9284;52.298;21.164;2023-02-28T18:16:51;-2.70;99.90
18317;DHT22;9284;52.298;21.164;2023-02-28T18:19:20;-2.80;99.90
18317;DHT22;9284;52.298;21.164;2023-02-28T18:21:49;-2.90;1.00
18317;DHT22;9284;52.298;21.164;2023-02-28T18:24:19;-2.80;1.00
18317;DHT22;9284;52.298;21.164;2023-02-28T18:26:48;-2.90;1.00
18317;DHT22;9284;52.298;21.164;2023-02-28T18:29:20;-2.90;1.00
18317;DHT22;9284;52.298;21.164;2023-02-28T18:31:49;-2.90;99.90
18317;DHT22;9284;52.298;21.164;2023-02-28T18:34:18;-2.90;99.90
18317;DHT22;9284;52.298;21.164;2023-02-28T18:36:47;-2.90;1.00
18317;DHT22;9284;52.298;21.164;2023-02-28T18:39:17;-3.00;99.90
18317;DHT22;9284;52.298;21.164;2023-02-28T18:41:45;-3.00;1.00
18317;DHT22;9284;52.298;21.164;2023-02-28T18:44:14;-3.00;97.80
18317;DHT22;9284;52.298;21.164;2023-02-28T18:46:49;-3.00;78.20
18317;DHT22;9284;52.298;21.164;2023-02-28T18:49:20;-3.00;1.00
18317;DHT22;9284;52.298;21.164;2023-02-28T18:51:49;-2.90;1.00
18317;DHT22;9284;52.298;21.164;2023-02-28T18:54:18;-3.10;1.00
18317;DHT22;9284;52.298;21.164;2023-02-28T18:56:47;-3.00;1.00
18317;DHT22;9284;52.298;21.164;2023-02-28T18:59:16;-3.00;1.00
18317;DHT22;9284;52.298;21.164;2023-02-28T19:01:45;-3.00;99.90
18317;DHT22;9284;52.298;21.164;2023-02-28T19:04:15;-3.00;1.00
18317;DHT22;9284;52.298;21.164;2023-02-28T19:06:43;-3.00;58.20
18317;DHT22;9284;52.298;21.164;2023-02-28T19:09:11;-3.10;99.90
18317;DHT22;9284;52.298;21.164;2023-02-28T19:11:40;-3.00;1.00
18317;DHT22;9284;52.298;21.164;2023-02-28T19:14:08;-3.10;99.90
18317;DHT22;9284;52.298;21.164;2023-02-28T19:16:36;-3.20;99.90
18317;DHT22;9284;52.298;21.164;2023-02-28T19:19:05;-3.20;1.00
18317;DHT22;9284;52.298;21.164;2023-02-28T19:21:34;-3.30;1.00
18317;DHT22;9284;52.298;21.164;2023-02-28T19:24:03;-3.20;1.00
18317;DHT22;9284;52.298;21.164;2023-02-28T19:26:32;-3.30;1.00
18317;DHT22;9284;52.298;21.164;2023-02-28T19:29:02;-3.30;1.00
18317;DHT22;9284;52.298;21.164;2023-02-28T19:31:30;-3.30;1.00
18317;DHT22;9284;52.298;21.164;2023-02-28T19:34:00;-3.40;1.00
18317;DHT22;9284;52.298;21.164;2023-02-28T19:36:28;-3.40;1.00
18317;DHT22;9284;52.298;21.164;2023-02-28T19:38:58;-3.40;1.00
18317;DHT22;9284;52.298;21.164;2023-02-28T19:41:26;-3.50;1.00
18317;DHT22;9284;52.298;21.164;2023-02-28T19:43:55;-3.50;99.90
18317;DHT22;9284;52.298;21.164;2023-02-28T19:46:23;-3.50;1.00
18317;DHT22;9284;52.298;21.164;2023-02-28T19:48:52;-3.60;40.10
18317;DHT22;9284;52.298;21.164;2023-02-28T19:51:21;-3.60;95.20
18317;DHT22;9284;52.298;21.164;2023-02-28T19:53:50;-3.70;99.90
18317;DHT22;9284;52.298;21.164;2023-02-28T19:56:20;-3.70;99.90
18317;DHT22;9284;52.298;21.164;2023-02-28T19:58:48;-3.70;1.00
18317;DHT22;9284;52.298;21.164;2023-02-28T20:01:18;-3.70;1.00
18317;DHT22;9284;52.298;21.164;2023-02-28T20:03:47;-3.70;1.00
18317;DHT22;9284;52.298;21.164;2023-02-28T20:06:16;-3.70;1.00
18317;DHT22;9284;52.298;21.164;2023-02-28T20:08:44;-3.70;71.30
18317;DHT22;9284;52.298;21.164;2023-02-28T20:11:14;-3.70;1.00
18317;DHT22;9284;52.298;21.164;2023-02-28T20:13:44;-3.70;99.90
18317;DHT22;9284;52.298;21.164;2023-02-28T20:16:14;-3.80;72.40
18317;DHT22;9284;52.298;21.164;2023-02-28T20:18:43;-3.80;99.90
18317;DHT22;9284;52.298;21.164;2023-02-28T20:21:12;-3.80;99.90
18317;DHT22;9284;52.298;21.164;2023-02-28T20:23:43;-3.70;99.90
18317;DHT22;9284;52.298;21.164;2023-02-28T20:26:12;-3.80;1.00
18317;DHT22;9284;52.298;21.164;2023-02-28T20:28:40;-3.80;91.60
18317;DHT22;9284;52.298;21.164;2023-02-28T20:31:12;-3.80;30.20
18317;DHT22;9284;52.298;21.164;2023-02-28T20:33:41;-3.80;1.00
18317;DHT22;9284;52.298;21.164;2023-02-28T20:36:12;-3.80;1.00
18317;DHT22;9284;52.298;21.164;2023-02-28T20:38:42;-3.70;99.90
18317;DHT22;9284;52.298;21.164;2023-02-28T20:41:11;-3.90;99.90
18317;DHT22;9284;52.298;21.164;2023-02-28T20:43:39;-3.90;1.00
18317;DHT22;9284;52.298;21.164;2023-02-28T20:46:08;-3.90;1.00
18317;DHT22;9284;52.298;21.164;2023-02-28T20:48:39;-4.00;1.00